aviador You're here:

PAOU Decoded Metar

NELSON LAGOON in AK, USA
Report Time2017-06-29 11:56:00
UTC Time2017-06-29 12:25:24
Flight Rules mvfr MVFR
Wind240° at 05 kt
W.Decomp.*RWY 26: 4.1 kt HW 2.9 kt LCW
W.Rank240° ranks 18
Current wind is below 240° avg. (12.5)
Visibility9999 m
Phenomena:N/A
Clouds:Broken 028 Hf
Expected CloudBase > 400 ft AGL from Temp-Dew spread
Ceiling2,800 ft
Temp07°C (ISA -8)
Dew Point06°C (93% RH)
AAT4.3°C
QNH1006 hPa
Density Alt-581 ft
Elevation13 ft
Report Wrong Elevation
Raw Report
PAOU 291156Z AUTO 24005KT 10SM BKN028 07/06 A2972 RMK AO2 SLP065
T00720061 10089 20072 56004=

Extra information for PAOU:More info

Metar Taf Metar & Taf Last 4 Metars F.Rules Stats Wind Profile Meteogram Temp Stats Airport Information Weather charts Add Link Nearby VenuesMetar ALERT Operation Metar Decoded Social comments

AIRNAV info for PAOU